Skip Navigation Links
NOAA logo - Click to go to the NOAA homepage
NOAA's National Weather Service
Alaska Aviation Weather Unit
  NWS logo - Click to go to the NWS homepage
Left Navbar Graphic     17 AKDT = 01 GMT

   
NOAA is celebrating 200 years of science, service, and stewardship. Visit the NOAA 200th celebration Web site to learn more.
USA.gov is the U.S. Government's official Web portal to all Federal, state and local government Web resources and services.
Facebook
NWS on Facebook

Important Change Regarding the AAWU Web Presence

 

Over the last several months, the AAWU has been working to navigate its webpages to a nationally supported server. Security, as well as other needs, have necessitated the change.  In the process, we have made an effort to enhance the functionality of our website, as well as some of our products. As of June 27, 2017, aawu.arh.noaa.gov will be discontinued. The new AAWU web address is weather.gov/aawu. It is now live and will run in-parallel with the old site until it is discontinued. Please send any feedback or questions regarding the new webpages to nws.ar.aawu.webauthors@noaa.gov.  Thank you for your patience during this time of transition.
AAWU Home :: Display TAF Add Bookmark
TAF PASN 252331Z 2600/2624 13016G22KT 1 1/2SM -RA BR OVC003
      TEMPO 2600/2604 21011KT 3SM -RA OVC005
     FM260400 20011KT P6SM OVC005=

PASN 251938Z AUTO 12017KT 2 1/2SM BR OVC004 08/07 A2951= METAR PASN 251953Z AUTO 12016G23KT 2 1/2SM BR OVC003 08/07 A2951 RMK AO2 SLP993 T00780072 TSNO= METAR PASN 252053Z AUTO 12013G23KT 2 1/2SM -RA BR OVC003 08/07 A2949 RMK AO2 RAB45 SLP987 P0000 60000 T00780072 58018 TSNO= PASN 252144Z AUTO 12016KT 1 1/2SM BR OVC002 08/08 A2947= METAR PASN 252153Z AUTO 12015KT 1 1/4SM BR OVC002 08/08 A2947 RMK AO2 RAE2058 SLP980 P0000 T00780078 TSNO= PASN 252209Z AUTO 12016KT 3/4SM -RA BR VV003 08/08 A2947= PASN 252218Z AUTO 12015G22KT 1 1/4SM BR OVC003 08/08 A2947= METAR PASN 252253Z AUTO 13014G21KT 1 1/2SM BR OVC003 08/08 A2946 RMK AO2 RAB04E18 SLP976 P0000 T00830078 TSNO= METAR PASN 252353Z AUTO 12014KT 1 1/4SM BR OVC004 08/08 A2944 RMK AO2 SLP971 60000 T00780078 10083 20078 56016 TSNO= PASN 260042Z AUTO 12014KT 3/4SM BR VV003 08/08 A2943= PASN 260049Z AUTO 12013KT 1/2SM FG VV003 08/07 A2943= METAR PASN 260053Z AUTO 12011KT 1/2SM FG VV002 08/08 A2942 RMK AO2 SLP964 T00780078 TSNO=
 Alaska TAF Map

NOAA's National Weather Service
Alaska Aviation Weather Unit
6930 Sand Lake Road
Anchorage, AK 99502-1845
Disclaimer
Credits
Glossary
Privacy Policy
About Us
Career Opportunities
Contact AAWU Internet Services Site last modified: April, 17th 2012